Pisco, Peru
Current Conditions -  °F | °C
As of 9:00 AM on Monday 22 Dec 2014 (Local Time) from SPSO Reporting Station
Scattered Clouds Scattered Clouds  
Wind Chill: 70°   Ceiling: Unl
Heat Index: 70°   Visibility: 6mi
Dew Point: 63°   Wind: 9mph
Humidity: 78%   Direction: 330°NNW
Pressure: 29.94"   Gusts: NA
Location:  13.71°S, 76.22°W
Report Text: SPSO 221400Z 33008KT 9999 FEW008 SCT100 21/17 Q1014 RMK FU QUADE BIRD HAZARD RWY 22/04 PP000
Loading
Personal Weather Stations






























Interactive Weather Map New forecast layout! Learn more

10-Day Weather Forecast

Advertisements
Track Severe Weather on mobile